Time;durP1;ratioP1;P1;durP2;ratioP2;P2;SDS_P1;SDS_P2;PMS_P1;PMS_P2;Temp;Humidity;BMP_temperature;BMP_pressure;BME280_temperature;BME280_humidity;BME280_pressure;Samples;Min_cycle;Max_cycle;Signal;HPM_P1;HPM_P2
2024/03/22 00:01:00;;;;;;;7.60;6.20;;;;;;;9.63;100.00;101359.28;10548385;28;20048;-77
2024/03/22 00:06:23;;;;;;;8.98;6.07;;;;;;;9.66;100.00;101357.63;10561904;28;20673;-77
2024/03/22 00:11:46;;;;;;;8.55;6.60;;;;;;;9.74;100.00;101349.94;10562209;28;20054;-77
2024/03/22 00:17:10;;;;;;;9.32;6.80;;;;;;;9.63;100.00;101347.00;10560347;28;20100;-77
2024/03/22 00:22:32;;;;;;;8.30;6.38;;;;;;;9.53;100.00;101327.41;10559561;28;20077;-77
2024/03/22 00:27:56;;;;;;;7.53;6.80;;;;;;;9.45;100.00;101331.53;10560019;28;20047;-76
2024/03/22 00:33:20;;;;;;;10.50;7.40;;;;;;;9.37;100.00;101314.63;10560818;28;20399;-75
2024/03/22 00:38:42;;;;;;;9.45;6.45;;;;;;;9.54;100.00;101305.47;10560036;28;20044;-76
2024/03/22 00:44:05;;;;;;;10.82;7.53;;;;;;;9.36;100.00;101302.31;10575660;28;20083;-76
2024/03/22 00:49:29;;;;;;;11.30;8.35;;;;;;;9.05;100.00;101305.78;10573560;28;20136;-76
2024/03/22 00:54:52;;;;;;;9.23;7.85;;;;;;;8.86;100.00;101307.81;10559863;28;20056;-76
2024/03/22 01:00:16;;;;;;;11.85;8.40;;;;;;;8.85;100.00;101300.75;10559582;28;20067;-75
2024/03/22 01:05:42;;;;;;;11.88;7.45;;;;;;;8.72;100.00;101296.84;10559264;28;20062;-75
2024/03/22 01:11:04;;;;;;;9.77;7.35;;;;;;;8.86;100.00;101284.13;10559361;28;20096;-77
2024/03/22 01:16:27;;;;;;;11.75;8.70;;;;;;;8.80;100.00;101276.88;10573137;28;20074;-75
2024/03/22 01:21:51;;;;;;;10.95;8.32;;;;;;;8.63;100.00;101273.75;10542927;28;20066;-76
2024/03/22 01:27:14;;;;;;;10.05;8.07;;;;;;;8.40;100.00;101266.88;10586426;27;20140;-75
2024/03/22 01:32:36;;;;;;;9.93;7.45;;;;;;;8.63;100.00;101271.13;10558147;28;20054;-76
2024/03/22 01:38:00;;;;;;;11.25;7.65;;;;;;;8.84;100.00;101267.38;10557714;28;20139;-76
2024/03/22 01:43:23;;;;;;;8.70;7.80;;;;;;;8.94;100.00;101266.78;10557916;28;20093;-76
2024/03/22 01:48:45;;;;;;;10.30;7.88;;;;;;;8.83;100.00;101258.56;10544476;28;20453;-76
2024/03/22 01:54:11;;;;;;;10.25;8.07;;;;;;;8.64;100.00;101253.59;10579878;28;20046;-76
2024/03/22 01:59:34;;;;;;;7.60;6.80;;;;;;;8.80;100.00;101255.84;10579822;28;20491;-76
2024/03/22 02:04:58;;;;;;;8.23;6.38;;;;;;;9.11;100.00;101247.13;10579996;28;20055;-76
2024/03/22 02:10:23;;;;;;;9.65;6.75;;;;;;;9.13;100.00;101237.50;10561321;28;20090;-76
2024/03/22 02:15:45;;;;;;;8.30;7.22;;;;;;;9.00;100.00;101228.38;10583814;27;20070;-76
2024/03/22 02:21:08;;;;;;;11.25;7.45;;;;;;;8.90;100.00;101231.59;10567958;28;20101;-76
2024/03/22 02:26:31;;;;;;;10.30;7.50;;;;;;;8.84;100.00;101226.16;10564959;28;20048;-75
2024/03/22 02:31:55;;;;;;;8.05;6.97;;;;;;;8.89;100.00;101234.16;10563139;28;20043;-76
2024/03/22 02:37:18;;;;;;;13.60;9.85;;;;;;;8.86;100.00;101239.38;10565647;28;20046;-76
2024/03/22 02:42:42;;;;;;;10.50;8.15;;;;;;;9.02;100.00;101231.06;10537181;28;20040;-76
2024/03/22 02:48:06;;;;;;;9.10;8.05;;;;;;;8.93;100.00;101238.66;10555222;28;20134;-76
2024/03/22 02:53:29;;;;;;;13.57;8.43;;;;;;;8.86;100.00;101239.38;10564520;28;20051;-76
2024/03/22 02:58:53;;;;;;;9.48;7.80;;;;;;;8.80;100.00;101240.03;10578196;28;20055;-76
2024/03/22 03:04:15;;;;;;;7.72;6.75;;;;;;;9.03;100.00;101243.38;10576411;28;20055;-76
2024/03/22 03:09:38;;;;;;;9.90;7.07;;;;;;;9.05;100.00;101239.94;10535818;28;20067;-76
2024/03/22 03:15:02;;;;;;;13.75;7.90;;;;;;;9.04;100.00;101235.53;10563869;28;20043;-75
2024/03/22 03:20:26;;;;;;;11.57;8.10;;;;;;;8.94;100.00;101227.28;10562748;28;20079;-76
2024/03/22 03:25:49;;;;;;;12.05;8.38;;;;;;;8.83;100.00;101228.72;10576592;28;20039;-75
2024/03/22 03:31:13;;;;;;;10.63;7.22;;;;;;;8.83;100.00;101234.00;10575780;28;20075;-76
2024/03/22 03:36:36;;;;;;;9.98;7.50;;;;;;;8.84;100.00;101235.78;10576571;28;20070;-76
2024/03/22 03:41:59;;;;;;;10.75;8.07;;;;;;;8.78;100.00;101236.50;10562168;28;20051;-75
2024/03/22 03:47:23;;;;;;;12.60;10.25;;;;;;;8.70;100.00;101238.88;10562219;28;20100;-76
2024/03/22 03:52:45;;;;;;;10.40;7.95;;;;;;;8.76;100.00;101235.53;10576260;28;20066;-76
2024/03/22 03:58:08;;;;;;;11.48;7.32;;;;;;;8.96;100.00;101237.03;10561210;28;20063;-75
2024/03/22 04:03:32;;;;;;;18.25;8.98;;;;;;;8.82;100.00;101237.47;10575118;28;20056;-75
2024/03/22 04:08:54;;;;;;;34.45;23.25;;;;;;;8.76;100.00;101243.44;10546643;28;20047;-76
2024/03/22 04:14:17;;;;;;;13.00;7.78;;;;;;;9.09;100.00;101240.91;10560110;28;20047;-76
2024/03/22 04:19:41;;;;;;;17.27;10.60;;;;;;;9.10;100.00;101242.72;10574529;28;20085;-75
2024/03/22 04:25:03;;;;;;;31.55;28.17;;;;;;;9.17;100.00;101242.03;10560603;28;20059;-76
2024/03/22 04:30:26;;;;;;;21.05;16.02;;;;;;;9.18;100.00;101250.00;10560243;28;20419;-75
2024/03/22 04:35:49;;;;;;;26.33;20.27;;;;;;;9.31;100.00;101240.69;10573550;28;20052;-75
2024/03/22 04:41:12;;;;;;;23.25;16.55;;;;;;;9.75;100.00;101243.66;10559533;28;20092;-75
2024/03/22 04:46:35;;;;;;;11.65;7.85;;;;;;;11.59;100.00;101238.22;10573947;28;20054;-75
2024/03/22 04:51:59;;;;;;;9.93;6.03;;;;;;;13.08;100.00;101230.06;10574098;28;20062;-76
2024/03/22 04:57:21;;;;;;;11.18;7.30;;;;;;;14.65;100.00;101233.44;10573802;28;20043;-76
2024/03/22 05:02:44;;;;;;;9.30;7.28;;;;;;;16.08;100.00;101217.13;10545043;28;20058;-76
2024/03/22 05:08:09;;;;;;;8.32;5.20;;;;;;;17.00;100.00;101213.47;10544541;28;20051;-76
2024/03/22 05:13:32;;;;;;;8.85;5.10;;;;;;;17.72;100.00;101219.38;10585173;27;20068;-76
2024/03/22 05:18:55;;;;;;;7.50;5.60;;;;;;;18.99;90.03;101225.38;10565057;28;20054;-76
2024/03/22 05:24:19;;;;;;;6.53;4.55;;;;;;;19.79;81.98;101218.09;10557437;28;20043;-75
2024/03/22 05:29:41;;;;;;;6.22;3.97;;;;;;;20.21;76.47;101213.88;10558008;28;20048;-77
2024/03/22 05:35:04;;;;;;;6.72;4.47;;;;;;;20.43;71.61;101209.03;10572709;28;20044;-75
2024/03/22 05:40:28;;;;;;;7.60;4.20;;;;;;;21.46;65.88;101207.88;10558919;28;20183;-77
2024/03/22 05:45:51;;;;;;;7.72;3.80;;;;;;;22.47;58.08;101216.25;10545921;28;20035;-76
2024/03/22 05:51:13;;;;;;;6.07;4.10;;;;;;;23.39;53.37;101212.78;10572896;28;20304;-76
2024/03/22 05:56:37;;;;;;;6.07;4.30;;;;;;;23.92;49.95;101221.03;10557695;28;20043;-76
2024/03/22 06:01:59;;;;;;;5.35;3.83;;;;;;;24.29;48.17;101212.63;10556397;28;20055;-77
2024/03/22 06:07:22;;;;;;;7.95;3.90;;;;;;;25.48;45.54;101206.50;10544027;28;20048;-76
2024/03/22 06:12:47;;;;;;;6.72;3.47;;;;;;;26.29;42.14;101217.72;10556905;28;20043;-77
2024/03/22 06:18:09;;;;;;;6.15;3.22;;;;;;;27.46;40.40;101216.06;10557468;28;20406;-78
2024/03/22 06:23:31;;;;;;;9.05;3.15;;;;;;;28.89;37.73;101220.69;10556326;28;20047;-77
2024/03/22 06:28:55;;;;;;;12.20;5.30;;;;;;;29.75;35.38;101211.41;10557384;28;20052;-76
2024/03/22 06:34:18;;;;;;;5.00;3.20;;;;;;;29.80;34.39;101214.75;10555632;28;20052;-78
2024/03/22 06:39:40;;;;;;;13.75;6.32;;;;;;;30.83;33.60;101207.75;10548569;28;20050;-78
2024/03/22 06:45:05;;;;;;;7.50;3.90;;;;;;;31.78;31.35;101208.09;10549917;28;20044;-77
2024/03/22 06:50:28;;;;;;;9.40;5.70;;;;;;;31.94;30.32;101204.25;10551725;28;20503;-77
2024/03/22 06:55:50;;;;;;;6.88;3.45;;;;;;;32.77;29.50;101205.00;10576721;28;20043;-78
2024/03/22 07:01:15;;;;;;;7.68;4.05;;;;;;;33.39;28.01;101207.91;10562959;28;20051;-79
2024/03/22 07:06:38;;;;;;;14.52;8.35;;;;;;;33.40;27.57;101198.72;10568822;28;20101;-78
2024/03/22 07:12:00;;;;;;;6.25;3.47;;;;;;;32.95;26.62;101197.38;10563749;28;20052;-78
2024/03/22 07:17:24;;;;;;;6.80;4.25;;;;;;;33.55;26.48;101198.44;10563434;28;20052;-78
2024/03/22 07:22:47;;;;;;;6.20;2.67;;;;;;;33.79;25.01;101190.31;10563005;28;20039;-78
2024/03/22 07:28:10;;;;;;;5.57;2.65;;;;;;;33.38;24.68;101200.69;10563267;28;20047;-76
2024/03/22 07:33:35;;;;;;;7.28;3.65;;;;;;;33.87;24.16;101197.97;10560716;28;20054;-76
2024/03/22 07:38:58;;;;;;;7.15;2.85;;;;;;;33.92;23.67;101198.50;10573633;28;20074;-76
2024/03/22 07:44:20;;;;;;;4.72;2.92;;;;;;;34.07;24.38;101188.25;10571588;28;20100;-77
2024/03/22 07:49:45;;;;;;;7.30;2.70;;;;;;;35.30;23.25;101195.06;10539617;28;20052;-75
2024/03/22 07:55:08;;;;;;;6.22;2.97;;;;;;;36.24;22.13;101196.31;10553605;28;20043;-76
2024/03/22 08:00:31;;;;;;;4.03;2.53;;;;;;;35.41;22.08;101184.94;10559956;28;20054;-75
2024/03/22 08:05:55;;;;;;;5.70;3.72;;;;;;;35.95;22.29;101184.13;10563568;28;20642;-76
2024/03/22 08:11:17;;;;;;;6.25;3.60;;;;;;;36.57;22.09;101188.91;10556108;28;20399;-75
2024/03/22 08:16:40;;;;;;;7.57;4.22;;;;;;;37.42;20.92;101184.09;10561202;28;20442;-76
2024/03/22 08:22:04;;;;;;;7.68;4.10;;;;;;;36.73;20.06;101184.72;10559763;28;20499;-78
2024/03/22 08:27:27;;;;;;;12.45;4.97;;;;;;;37.25;19.81;101182.00;10571459;28;20128;-78
2024/03/22 08:32:49;;;;;;;10.15;4.68;;;;;;;37.14;19.73;101169.22;10570171;28;20047;-78
2024/03/22 08:38:14;;;;;;;13.63;4.43;;;;;;;36.05;19.86;101165.84;10571827;28;20100;-79
2024/03/22 08:43:37;;;;;;;11.38;4.43;;;;;;;35.87;19.81;101164.66;10571255;28;20052;-78
2024/03/22 08:48:59;;;;;;;7.88;3.28;;;;;;;35.97;19.87;101154.66;10557552;28;20048;-78
2024/03/22 08:54:24;;;;;;;4.60;3.05;;;;;;;36.18;19.38;101150.06;10566201;28;20059;-77
2024/03/22 08:59:47;;;;;;;6.55;2.58;;;;;;;36.87;19.22;101155.97;10555324;28;20067;-79
2024/03/22 09:05:11;;;;;;;6.28;2.92;;;;;;;37.50;18.78;101149.34;10567293;28;20051;-78
2024/03/22 09:10:35;;;;;;;7.18;3.95;;;;;;;37.34;19.12;101148.13;10555946;28;20047;-76
2024/03/22 09:16:00;;;;;;;4.47;2.92;;;;;;;37.24;18.31;101148.06;10557841;28;20046;-76
2024/03/22 09:21:24;;;;;;;5.97;2.78;;;;;;;37.36;18.66;101141.44;10557008;28;20044;-77
2024/03/22 09:26:48;;;;;;;6.85;3.80;;;;;;;35.62;20.62;101131.94;10571382;28;20050;-76
2024/03/22 09:32:11;;;;;;;5.90;3.30;;;;;;;33.41;22.88;101129.28;10569199;28;20051;-77
2024/03/22 09:37:34;;;;;;;7.22;3.78;;;;;;;32.70;24.42;101127.09;10557713;28;20479;-77
2024/03/22 09:43:03;;;;;;;4.97;2.63;;;;;;;32.56;23.38;101119.84;10572878;28;20195;-77
2024/03/22 09:48:27;;;;;;;7.20;2.78;;;;;;;32.89;23.57;101115.72;10544539;28;20490;-79
2024/03/22 09:53:50;;;;;;;6.15;2.50;;;;;;;33.51;23.18;101125.72;10559425;28;20047;-78
2024/03/22 09:59:14;;;;;;;6.60;4.35;;;;;;;33.23;23.53;101123.25;10573434;28;20040;-79
2024/03/22 10:04:37;;;;;;;5.00;2.70;;;;;;;32.56;25.11;101119.84;10557827;28;20058;-77
2024/03/22 10:09:59;;;;;;;6.72;3.10;;;;;;;32.37;26.11;101133.91;10573337;28;20124;-77
2024/03/22 10:15:26;;;;;;;5.38;2.58;;;;;;;32.93;25.84;101128.22;10566025;28;20151;-79
2024/03/22 10:20:48;;;;;;;6.40;2.72;;;;;;;32.83;26.26;101136.19;10567022;28;20043;-79
2024/03/22 10:26:11;;;;;;;8.02;2.75;;;;;;;33.28;26.05;101122.94;10566329;28;20047;-78
2024/03/22 10:31:36;;;;;;;9.43;5.03;;;;;;;33.18;25.51;101120.84;10580074;28;20492;-79
2024/03/22 10:37:01;;;;;;;5.93;2.70;;;;;;;32.88;25.95;101103.91;10565809;28;20044;-79
2024/03/22 10:42:24;;;;;;;13.02;4.88;;;;;;;32.36;26.32;101104.81;10565871;28;20044;-79
2024/03/22 10:47:48;;;;;;;7.63;2.85;;;;;;;31.53;27.24;101097.72;10578227;28;20457;-78
2024/03/22 10:53:18;;;;;;;5.03;2.78;;;;;;;31.34;27.49;101096.31;10578668;28;20051;-79
2024/03/22 10:58:42;;;;;;;5.78;2.58;;;;;;;31.03;28.20;101094.69;10564252;28;20154;-78
2024/03/22 11:04:09;;;;;;;6.85;2.78;;;;;;;30.01;29.47;101088.25;10557163;28;20059;-78
2024/03/22 11:09:31;;;;;;;7.53;2.70;;;;;;;29.73;30.48;101089.00;10551666;28;20047;-78
2024/03/22 11:14:54;;;;;;;6.40;3.30;;;;;;;29.05;30.98;101090.22;10532747;28;20047;-77
2024/03/22 11:20:19;;;;;;;11.00;3.20;;;;;;;27.27;33.96;101085.88;10548839;28;20104;-78
2024/03/22 11:25:41;;;;;;;6.18;3.05;;;;;;;26.02;35.90;101082.56;10527328;28;20044;-77
2024/03/22 11:31:05;;;;;;;7.68;2.80;;;;;;;25.21;38.13;101076.91;10560809;28;20046;-78
2024/03/22 11:36:29;;;;;;;4.60;2.78;;;;;;;25.04;39.71;101063.19;10539884;28;20089;-78
2024/03/22 11:41:52;;;;;;;7.03;3.25;;;;;;;24.72;39.41;101061.69;10559652;28;20048;-78
2024/03/22 11:47:14;;;;;;;9.35;3.30;;;;;;;24.11;41.80;101063.03;10554705;28;20598;-78
2024/03/22 11:59:21;;;;;;;6.60;2.80;;;;;;;24.42;40.38;101082.59;10371400;28;20045;-80
2024/03/22 12:04:44;;;;;;;6.25;2.88;;;;;;;24.38;40.69;101075.56;10372927;28;20080;-75
2024/03/22 12:10:09;;;;;;;7.90;3.13;;;;;;;23.91;41.75;101071.81;10380707;28;20056;-78
2024/03/22 12:15:31;;;;;;;9.27;3.10;;;;;;;23.34;43.14;101072.78;10369582;28;20061;-77
2024/03/22 12:20:53;;;;;;;9.65;3.63;;;;;;;22.94;44.50;101067.75;10463414;27;20128;-76
2024/03/22 12:26:18;;;;;;;8.98;3.80;;;;;;;22.60;47.04;101072.34;10560511;28;20073;-78
2024/03/22 12:31:41;;;;;;;7.00;2.95;;;;;;;22.49;47.06;101067.28;10572579;28;20514;-77
2024/03/22 12:37:04;;;;;;;6.20;3.38;;;;;;;22.44;48.27;101065.66;10573422;28;20050;-78
2024/03/22 12:42:28;;;;;;;5.90;2.97;;;;;;;22.56;47.83;101065.31;10568630;28;20559;-77
2024/03/22 12:47:51;;;;;;;7.72;3.50;;;;;;;22.56;47.51;101058.09;10569451;28;20054;-76
2024/03/22 12:53:13;;;;;;;5.53;2.90;;;;;;;22.55;46.09;101061.72;10570335;28;20104;-78
2024/03/22 12:58:37;;;;;;;5.13;3.05;;;;;;;22.61;44.80;101057.97;10564982;28;20050;-77
2024/03/22 13:04:00;;;;;;;6.45;3.78;;;;;;;22.49;44.60;101053.81;10549905;28;20043;-75
2024/03/22 13:09:22;;;;;;;7.45;4.07;;;;;;;22.31;44.83;101061.53;10553270;28;20051;-80
2024/03/22 13:14:47;;;;;;;5.53;3.60;;;;;;;22.30;44.15;101059.78;10554793;28;20416;-79
2024/03/22 13:20:14;;;;;;;5.47;3.17;;;;;;;21.99;47.09;101065.13;10569186;28;20051;-76
2024/03/22 13:25:37;;;;;;;8.23;4.00;;;;;;;21.68;48.91;101067.66;10533332;28;20436;-77
2024/03/22 13:31:06;;;;;;;5.93;3.63;;;;;;;21.81;50.82;101055.66;10523852;28;20078;-77
2024/03/22 13:36:32;;;;;;;5.18;3.80;;;;;;;21.53;52.19;101062.69;10551356;28;20047;-79
2024/03/22 13:41:55;;;;;;;5.07;3.47;;;;;;;21.53;50.75;101060.84;10533463;28;20498;-76
2024/03/22 13:47:19;;;;;;;7.30;3.90;;;;;;;21.58;51.00;101060.75;10591020;28;20399;-78
2024/03/22 13:52:41;;;;;;;4.78;3.83;;;;;;;21.52;48.01;101060.91;10580978;28;20054;-79
2024/03/22 13:58:04;;;;;;;5.03;3.80;;;;;;;21.28;48.05;101055.19;10581300;28;20055;-78
2024/03/22 14:03:28;;;;;;;6.93;5.22;;;;;;;21.19;48.88;101066.16;10578407;28;20054;-78
2024/03/22 14:08:54;;;;;;;6.97;3.88;;;;;;;21.05;50.03;101060.19;10572734;28;20035;-77
2024/03/22 14:14:16;;;;;;;5.97;4.78;;;;;;;20.93;53.72;101056.00;10543840;28;20043;-77
2024/03/22 14:19:40;;;;;;;9.73;4.00;;;;;;;20.81;54.60;101063.41;10553760;28;20044;-77
2024/03/22 14:25:03;;;;;;;9.82;7.40;;;;;;;20.98;67.09;101069.31;10563966;28;20060;-80
2024/03/22 14:30:26;;;;;;;27.00;14.43;;;;;;;20.73;76.91;101068.06;10550709;28;20079;-81
2024/03/22 14:35:50;;;;;;;15.82;8.00;;;;;;;20.47;85.94;101080.22;10539008;28;20052;-80
2024/03/22 14:41:13;;;;;;;11.88;9.82;;;;;;;20.26;93.00;101068.09;10543315;28;20664;-82
2024/03/22 14:46:35;;;;;;;12.43;7.65;;;;;;;20.59;92.31;101069.25;10538496;28;20056;-80
2024/03/22 14:52:00;;;;;;;9.35;5.03;;;;;;;20.60;89.38;101065.66;10541711;28;20514;-79
2024/03/22 14:57:22;;;;;;;15.80;8.60;;;;;;;20.01;87.94;101069.47;10551664;28;20050;-77
2024/03/22 15:02:46;;;;;;;8.00;5.95;;;;;;;19.47;90.25;101071.28;10592129;27;20052;-78
2024/03/22 15:08:11;;;;;;;8.35;6.32;;;;;;;19.41;88.77;101069.56;10576970;28;20087;-77
2024/03/22 15:13:33;;;;;;;7.25;4.55;;;;;;;19.34;85.54;101067.88;10573777;28;20052;-79
2024/03/22 15:18:56;;;;;;;7.50;4.40;;;;;;;18.84;89.55;101065.06;10559013;28;20090;-79
2024/03/22 15:24:20;;;;;;;10.55;5.93;;;;;;;18.73;90.68;101069.63;10575596;28;20079;-83
2024/03/22 15:29:43;;;;;;;14.32;6.07;;;;;;;18.51;100.00;101083.22;10559874;28;20048;-80
2024/03/22 15:35:07;;;;;;;13.38;6.38;;;;;;;18.13;100.00;101080.09;10577852;28;20040;-80
2024/03/22 15:40:32;;;;;;;13.90;6.82;;;;;;;18.07;100.00;101073.03;10577180;28;20052;-78
2024/03/22 15:45:54;;;;;;;11.02;6.05;;;;;;;17.74;100.00;101084.03;10576644;28;20047;-79
2024/03/22 15:51:18;;;;;;;11.07;6.30;;;;;;;17.57;100.00;101086.81;10563072;28;20127;-79
2024/03/22 15:56:42;;;;;;;11.23;8.02;;;;;;;17.27;100.00;101087.00;10571410;27;20075;-79
2024/03/22 16:02:04;;;;;;;14.20;9.10;;;;;;;17.08;100.00;101075.56;10557171;28;20048;-78
2024/03/22 16:07:27;;;;;;;14.65;7.32;;;;;;;16.91;100.00;101078.34;10561987;28;20044;-81
2024/03/22 16:12:51;;;;;;;13.20;8.60;;;;;;;16.79;100.00;101075.75;10577256;27;20059;-78
2024/03/22 16:18:14;;;;;;;28.02;20.70;;;;;;;16.55;100.00;101081.13;10561952;28;20044;-83
2024/03/22 16:23:36;;;;;;;32.35;20.08;;;;;;;16.29;100.00;101079.44;10551143;28;20059;-80
2024/03/22 16:29:00;;;;;;;19.60;13.63;;;;;;;16.16;100.00;101080.38;10554857;28;20067;-77
2024/03/22 16:34:25;;;;;;;8.48;6.40;;;;;;;16.20;100.00;101099.91;10555747;28;20043;-77
2024/03/22 16:39:47;;;;;;;11.38;8.55;;;;;;;16.02;100.00;101097.25;10556932;28;20051;-77
2024/03/22 16:45:14;;;;;;;19.95;12.43;;;;;;;15.76;100.00;101099.94;10541762;28;20039;-77
2024/03/22 16:50:36;;;;;;;13.90;9.65;;;;;;;15.47;100.00;101102.56;10560081;28;20046;-78
2024/03/22 16:55:59;;;;;;;16.33;14.63;;;;;;;15.41;100.00;101110.53;10573504;28;20052;-78
2024/03/22 17:01:24;;;;;;;14.07;8.48;;;;;;;15.21;100.00;101115.81;10558759;28;20051;-76
2024/03/22 17:06:46;;;;;;;29.80;24.90;;;;;;;15.13;100.00;101118.47;10571744;28;20065;-78
2024/03/22 17:12:09;;;;;;;38.53;27.27;;;;;;;14.98;100.00;101123.72;10572536;28;20032;-79
2024/03/22 17:17:33;;;;;;;16.25;13.98;;;;;;;14.90;100.00;101128.13;10559088;28;20043;-77
2024/03/22 17:22:56;;;;;;;15.38;11.07;;;;;;;14.77;100.00;101125.44;10554749;28;20109;-79
2024/03/22 17:28:18;;;;;;;16.08;9.48;;;;;;;14.64;100.00;101135.09;10566694;28;20051;-77
2024/03/22 17:33:44;;;;;;;11.82;8.27;;;;;;;14.46;100.00;101132.34;10557917;28;20044;-79
2024/03/22 17:39:07;;;;;;;14.05;8.82;;;;;;;14.32;100.00;101145.50;10549808;28;20048;-79
2024/03/22 17:44:29;;;;;;;14.90;7.95;;;;;;;14.19;100.00;101151.63;10567421;28;20101;-79
2024/03/22 17:49:53;;;;;;;13.77;7.38;;;;;;;14.08;100.00;101156.84;10570468;28;20495;-77
2024/03/22 17:55:16;;;;;;;48.88;43.58;;;;;;;14.21;100.00;101161.38;10571491;28;20047;-79
2024/03/22 18:00:39;;;;;;;40.50;35.40;;;;;;;14.14;100.00;101167.53;10563280;28;20187;-77
2024/03/22 18:06:04;;;;;;;19.20;17.05;;;;;;;13.97;100.00;101166.50;10568906;28;20269;-77
2024/03/22 18:11:27;;;;;;;10.13;8.40;;;;;;;13.96;100.00;101170.03;10553925;28;20059;-76
2024/03/22 18:16:49;;;;;;;10.30;8.45;;;;;;;13.85;100.00;101179.66;10553842;28;20051;-79
2024/03/22 18:22:13;;;;;;;14.27;12.95;;;;;;;14.00;100.00;101185.09;10572719;28;20040;-76
2024/03/22 18:27:36;;;;;;;25.58;22.40;;;;;;;13.81;100.00;101193.78;10571680;28;20046;-77
2024/03/22 18:32:59;;;;;;;31.10;28.02;;;;;;;13.76;100.00;101190.19;10563586;28;20055;-77
2024/03/22 18:38:23;;;;;;;10.73;9.35;;;;;;;13.74;100.00;101189.28;10580480;27;20493;-77
2024/03/22 18:43:45;;;;;;;12.90;11.52;;;;;;;13.84;100.00;101202.69;10565062;28;20043;-78
2024/03/22 18:49:08;;;;;;;37.40;33.95;;;;;;;13.87;100.00;101200.03;10568437;28;20131;-78
2024/03/22 18:54:33;;;;;;;38.47;34.97;;;;;;;13.78;100.00;101204.38;10580722;28;20062;-77
2024/03/22 18:59:56;;;;;;;19.83;18.02;;;;;;;13.48;100.00;101205.84;10566916;28;20132;-78
2024/03/22 19:05:18;;;;;;;21.90;19.88;;;;;;;13.41;100.00;101200.44;10578103;28;20089;-77
2024/03/22 19:10:42;;;;;;;12.90;11.05;;;;;;;13.18;100.00;101201.94;10563190;28;20051;-78
2024/03/22 19:16:06;;;;;;;10.23;9.23;;;;;;;13.11;100.00;101199.19;10578122;28;20050;-77
2024/03/22 19:21:28;;;;;;;12.02;10.82;;;;;;;13.13;100.00;101194.81;10579698;28;20051;-78
2024/03/22 19:26:53;;;;;;;29.77;26.98;;;;;;;13.01;100.00;101202.59;10561718;28;20043;-80
2024/03/22 19:32:18;;;;;;;61.33;56.00;;;;;;;12.77;100.00;101200.50;10557430;28;20572;-78
2024/03/22 19:37:41;;;;;;;14.15;10.57;;;;;;;12.55;100.00;101209.00;10547608;28;20036;-84
2024/03/22 19:43:05;;;;;;;10.30;9.00;;;;;;;12.70;100.00;101200.41;10567426;28;20411;-78
2024/03/22 19:48:28;;;;;;;19.73;16.50;;;;;;;12.62;100.00;101200.28;10561037;28;20052;-77
2024/03/22 19:53:51;;;;;;;20.00;14.75;;;;;;;12.57;100.00;101202.00;10555688;28;20074;-81
2024/03/22 19:59:16;;;;;;;25.45;23.05;;;;;;;12.53;100.00;101205.47;10579063;28;20085;-81
2024/03/22 20:04:38;;;;;;;12.07;9.10;;;;;;;12.40;100.00;101203.50;10565045;28;20048;-84
2024/03/22 20:10:03;;;;;;;11.80;8.75;;;;;;;12.50;100.00;101205.41;10547560;28;20414;-80
2024/03/22 20:15:27;;;;;;;11.23;8.63;;;;;;;12.57;100.00;101207.28;10574174;28;20051;-80
2024/03/22 20:20:49;;;;;;;17.40;15.63;;;;;;;12.51;100.00;101196.59;10560142;28;20535;-81
2024/03/22 20:26:12;;;;;;;15.52;13.82;;;;;;;12.39;100.00;101209.66;10574156;28;20047;-82
2024/03/22 20:31:39;;;;;;;16.75;15.15;;;;;;;12.67;100.00;101209.19;10560225;28;20662;-78
2024/03/22 20:37:01;;;;;;;30.33;27.63;;;;;;;12.36;100.00;101209.59;10560591;28;20048;-80
2024/03/22 20:42:24;;;;;;;20.23;18.15;;;;;;;12.23;100.00;101212.94;10560632;28;20054;-81
2024/03/22 20:47:49;;;;;;;11.30;10.15;;;;;;;12.32;100.00;101210.44;10557543;28;20039;-78
2024/03/22 20:53:15;;;;;;;18.85;17.15;;;;;;;12.38;100.00;101221.13;10555090;28;20048;-79
2024/03/22 20:58:41;;;;;;;11.63;9.18;;;;;;;12.34;100.00;101206.94;10560074;28;20391;-80
2024/03/22 21:04:06;;;;;;;22.50;20.35;;;;;;;12.62;100.00;101213.53;10560409;28;20050;-78
2024/03/22 21:09:32;;;;;;;15.80;14.35;;;;;;;12.67;100.00;101209.19;10550406;28;20047;-77
2024/03/22 21:14:58;;;;;;;9.85;8.85;;;;;;;12.93;100.00;101208.69;10541096;28;20048;-79
2024/03/22 21:20:24;;;;;;;12.10;10.90;;;;;;;12.98;100.00;101210.50;10544022;28;20697;-79
2024/03/22 21:25:50;;;;;;;9.20;8.10;;;;;;;12.93;100.00;101204.25;10555814;28;20055;-78
2024/03/22 21:31:15;;;;;;;14.75;11.48;;;;;;;13.13;100.00;101191.28;10558422;28;20043;-79
2024/03/22 21:36:38;;;;;;;16.73;13.88;;;;;;;12.88;100.00;101197.09;10558838;28;20386;-79
2024/03/22 21:42:00;;;;;;;9.55;8.65;;;;;;;12.75;100.00;101199.59;10571373;28;20524;-79
2024/03/22 21:47:26;;;;;;;20.95;16.08;;;;;;;12.84;100.00;101187.34;10569905;28;20047;-80
2024/03/22 21:52:51;;;;;;;20.00;17.90;;;;;;;12.62;100.00;101195.00;10559991;28;20035;-80
2024/03/22 21:58:17;;;;;;;20.98;18.27;;;;;;;12.68;100.00;101197.72;10558425;28;20113;-80
2024/03/22 22:03:43;;;;;;;17.55;12.02;;;;;;;12.62;100.00;101195.00;10560538;28;20051;-80
2024/03/22 22:09:09;;;;;;;19.10;15.48;;;;;;;12.38;100.00;101195.53;10566260;28;20051;-79
2024/03/22 22:14:35;;;;;;;21.88;16.85;;;;;;;12.24;100.00;101204.13;10582494;28;20421;-80
2024/03/22 22:20:01;;;;;;;15.07;12.60;;;;;;;12.07;100.00;101210.91;10581885;28;20061;-81
2024/03/22 22:25:27;;;;;;;12.30;9.00;;;;;;;11.83;100.00;101208.72;10567186;28;20538;-80
2024/03/22 22:30:52;;;;;;;13.77;9.23;;;;;;;11.78;100.00;101219.22;10567678;28;20484;-79
2024/03/22 22:36:18;;;;;;;11.52;9.60;;;;;;;11.62;100.00;101218.91;10578209;28;20051;-80
2024/03/22 22:41:43;;;;;;;16.73;11.77;;;;;;;11.59;100.00;101223.25;10561900;28;20044;-80
2024/03/22 22:47:09;;;;;;;11.65;10.45;;;;;;;11.53;100.00;101228.44;10567314;28;20063;-81
2024/03/22 22:52:34;;;;;;;11.98;8.88;;;;;;;11.55;100.00;101228.47;10567361;28;20043;-79
2024/03/22 22:58:00;;;;;;;13.10;9.88;;;;;;;11.66;100.00;101223.38;10565431;28;20507;-79
2024/03/22 23:03:25;;;;;;;14.38;12.40;;;;;;;11.74;100.00;101230.63;10580102;28;20043;-80
2024/03/22 23:08:51;;;;;;;39.03;35.28;;;;;;;11.79;100.00;101223.66;10563828;28;20047;-79
2024/03/22 23:14:17;;;;;;;17.92;16.02;;;;;;;11.77;100.00;101225.38;10564948;28;20089;-80
2024/03/22 23:19:42;;;;;;;10.82;9.23;;;;;;;11.71;100.00;101221.69;10578665;28;20047;-78
2024/03/22 23:25:08;;;;;;;10.57;8.48;;;;;;;11.75;100.00;101210.38;10593325;27;20043;-78
2024/03/22 23:30:34;;;;;;;11.27;9.82;;;;;;;11.59;100.00;101211.78;10578894;28;20039;-79
2024/03/22 23:35:59;;;;;;;13.45;10.63;;;;;;;11.54;100.00;101205.53;10551114;28;20055;-79
2024/03/22 23:41:25;;;;;;;19.00;14.63;;;;;;;11.40;100.00;101204.38;10564506;28;20039;-78
2024/03/22 23:46:50;;;;;;;12.88;9.75;;;;;;;11.16;100.00;101199.47;10562290;28;20047;-79
2024/03/22 23:52:16;;;;;;;9.43;8.45;;;;;;;11.09;100.00;101190.53;10578403;28;20069;-80
2024/03/22 23:57:41;;;;;;;11.13;8.02;;;;;;;11.04;100.00;101192.19;10562862;28;20043;-79
